Time;durP1;ratioP1;P1;durP2;ratioP2;P2;SDS_P1;SDS_P2;PMS_P1;PMS_P2;Temp;Humidity;BMP_temperature;BMP_pressure;BME280_temperature;BME280_humidity;BME280_pressure;Samples;Min_cycle;Max_cycle;Signal;HPM_P1;HPM_P2
2020/12/17 00:00:02;;;;;;;0.50;0.50;;;6.10;99.90;;;;;;5029031;28;20208;-87
2020/12/17 00:02:28;;;;;;;0.50;0.50;;;6.00;99.90;;;;;;5028646;28;20229;-87
2020/12/17 00:04:55;;;;;;;0.50;0.50;;;6.10;99.90;;;;;;5028399;28;20232;-86
2020/12/17 00:07:21;;;;;;;0.50;0.50;;;5.90;99.90;;;;;;5028679;28;20625;-86
2020/12/17 00:09:49;;;;;;;0.50;0.50;;;5.90;99.90;;;;;;5028937;28;20299;-87
2020/12/17 00:12:15;;;;;;;0.50;0.50;;;5.90;99.90;;;;;;5028517;28;20232;-87
2020/12/17 00:14:41;;;;;;;0.50;0.50;;;5.80;99.90;;;;;;5028686;28;20205;-87
2020/12/17 00:17:07;;;;;;;0.50;0.50;;;5.90;99.90;;;;;;5031572;28;20205;-88
2020/12/17 00:19:33;;;;;;;0.50;0.50;;;5.90;99.90;;;;;;5032249;28;20417;-86
2020/12/17 00:21:59;;;;;;;0.50;0.50;;;6.00;99.90;;;;;;5032334;28;20525;-87
2020/12/17 00:24:26;;;;;;;0.50;0.50;;;6.00;99.90;;;;;;5031916;28;20205;-87
2020/12/17 00:26:53;;;;;;;0.50;0.50;;;5.90;99.90;;;;;;5032136;28;20216;-87
2020/12/17 00:29:19;;;;;;;0.50;0.50;;;5.90;99.90;;;;;;5032072;28;20209;-88
2020/12/17 00:31:45;;;;;;;0.50;0.50;;;5.90;99.90;;;;;;5032236;28;20231;-87
2020/12/17 00:34:14;;;;;;;0.50;0.50;;;5.90;99.90;;;;;;5031663;28;20216;-87
2020/12/17 00:36:40;;;;;;;0.50;0.50;;;6.00;99.90;;;;;;5031920;28;20296;-87
2020/12/17 00:39:06;;;;;;;0.50;0.50;;;5.90;99.90;;;;;;5031659;28;20544;-86
2020/12/17 00:41:33;;;;;;;0.47;0.47;;;5.90;99.90;;;;;;5031760;28;20286;-87
2020/12/17 00:43:59;;;;;;;0.50;0.50;;;5.90;99.90;;;;;;5032101;28;20216;-88
2020/12/17 00:46:26;;;;;;;0.50;0.50;;;5.90;99.90;;;;;;5031786;28;20205;-87
2020/12/17 00:48:52;;;;;;;0.50;0.50;;;5.80;99.90;;;;;;5031438;28;20244;-87
2020/12/17 00:51:20;;;;;;;0.50;0.50;;;5.90;99.90;;;;;;5031428;28;20660;-88
2020/12/17 00:53:48;;;;;;;0.50;0.50;;;5.90;99.90;;;;;;5031551;28;20201;-88
2020/12/17 00:56:14;;;;;;;0.50;0.50;;;5.90;99.90;;;;;;5031373;28;20219;-87
2020/12/17 00:58:43;;;;;;;0.50;0.50;;;5.90;99.90;;;;;;5031724;28;20209;-87
2020/12/17 01:01:10;;;;;;;0.50;0.50;;;5.90;99.90;;;;;;5031492;28;20590;-88
2020/12/17 01:03:38;;;;;;;0.50;0.50;;;5.90;99.90;;;;;;5031308;28;20212;-88
2020/12/17 01:06:13;;;;;;;0.50;0.50;;;5.90;99.90;;;;;;5031371;28;20240;-87
2020/12/17 01:08:39;;;;;;;0.50;0.50;;;5.80;99.90;;;;;;5031078;28;20609;-87
2020/12/17 01:11:06;;;;;;;0.50;0.50;;;5.80;99.90;;;;;;5030936;28;20247;-87
2020/12/17 01:13:34;;;;;;;0.50;0.50;;;5.80;99.90;;;;;;5030593;28;20270;-87
2020/12/17 01:16:00;;;;;;;0.50;0.50;;;5.80;99.90;;;;;;5031106;28;20246;-87
2020/12/17 01:18:27;;;;;;;0.50;0.50;;;5.70;99.90;;;;;;5031014;28;20223;-88
2020/12/17 01:20:53;;;;;;;0.50;0.50;;;5.70;99.90;;;;;;5030553;28;20262;-87
2020/12/17 01:23:20;;;;;;;0.40;0.40;;;5.70;99.90;;;;;;5030785;28;20205;-87
2020/12/17 01:25:46;;;;;;;0.50;0.50;;;5.70;99.90;;;;;;5031302;28;20201;-87
2020/12/17 01:28:13;;;;;;;0.50;0.50;;;5.70;99.90;;;;;;5030238;28;20595;-87
2020/12/17 01:30:40;;;;;;;0.50;0.50;;;5.70;99.90;;;;;;5030902;28;20233;-86
2020/12/17 01:33:06;;;;;;;0.50;0.50;;;5.70;99.90;;;;;;5030642;28;20251;-86
2020/12/17 01:35:34;;;;;;;0.50;0.50;;;5.70;99.90;;;;;;5030404;28;20209;-87
2020/12/17 01:38:00;;;;;;;0.50;0.50;;;5.70;99.90;;;;;;5030802;28;20205;-87
2020/12/17 01:40:26;;;;;;;0.40;0.40;;;5.70;99.90;;;;;;5030641;28;20205;-87
2020/12/17 01:42:52;;;;;;;0.50;0.50;;;5.70;99.90;;;;;;5030274;28;20225;-88
2020/12/17 01:45:19;;;;;;;0.50;0.50;;;5.70;99.90;;;;;;5030584;28;20204;-87
2020/12/17 01:47:47;;;;;;;0.50;0.50;;;5.70;99.90;;;;;;5030426;28;20205;-87
2020/12/17 01:50:14;;;;;;;0.50;0.50;;;5.70;99.90;;;;;;5030263;28;20313;-88
2020/12/17 01:52:41;;;;;;;0.50;0.50;;;5.70;99.90;;;;;;5030654;28;20219;-88
2020/12/17 01:55:07;;;;;;;0.50;0.50;;;5.80;99.90;;;;;;5030684;28;20193;-87
2020/12/17 01:57:35;;;;;;;0.50;0.50;;;5.70;99.90;;;;;;5030263;28;20205;-88
2020/12/17 02:00:06;;;;;;;0.50;0.50;;;5.70;99.90;;;;;;5030349;28;20209;-88
2020/12/17 02:02:33;;;;;;;0.50;0.50;;;5.60;99.90;;;;;;5029770;28;20225;-86
2020/12/17 02:05:00;;;;;;;0.50;0.50;;;5.60;99.90;;;;;;5030066;28;20205;-87
2020/12/17 02:07:27;;;;;;;0.50;0.50;;;5.50;99.90;;;;;;5030133;28;20270;-87
2020/12/17 02:09:54;;;;;;;0.50;0.50;;;5.50;99.90;;;;;;5030241;28;20209;-87
2020/12/17 02:12:22;;;;;;;0.50;0.50;;;5.50;99.90;;;;;;5030198;28;20205;-87
2020/12/17 02:14:49;;;;;;;0.50;0.50;;;5.50;99.90;;;;;;5030215;28;20208;-86
2020/12/17 02:17:18;;;;;;;0.50;0.50;;;5.40;99.90;;;;;;5030094;28;20564;-86
2020/12/17 02:19:46;;;;;;;0.40;0.40;;;5.40;99.90;;;;;;5030341;28;20219;-87
2020/12/17 02:22:13;;;;;;;0.50;0.50;;;5.30;99.90;;;;;;5029890;28;20217;-87
2020/12/17 02:24:42;;;;;;;0.50;0.50;;;5.30;99.90;;;;;;5030143;28;20520;-87
2020/12/17 02:27:08;;;;;;;0.50;0.50;;;5.30;99.90;;;;;;5028748;28;20193;-87
2020/12/17 02:29:34;;;;;;;0.50;0.50;;;5.30;99.90;;;;;;5030941;28;20215;-87
2020/12/17 02:32:00;;;;;;;0.50;0.50;;;5.20;99.90;;;;;;5030937;28;20204;-87
2020/12/17 02:34:29;;;;;;;0.50;0.50;;;5.20;99.90;;;;;;5030636;28;20255;-88
2020/12/17 02:36:55;;;;;;;0.50;0.50;;;5.70;99.90;;;;;;5030827;28;20255;-87
2020/12/17 02:39:21;;;;;;;0.50;0.50;;;5.20;99.90;;;;;;5030424;28;20204;-88
2020/12/17 02:41:48;;;;;;;0.50;0.50;;;5.20;99.90;;;;;;5031252;28;20220;-88
2020/12/17 02:44:15;;;;;;;0.50;0.50;;;5.20;99.90;;;;;;5030894;28;20239;-87
2020/12/17 02:46:43;;;;;;;0.50;0.50;;;5.20;99.90;;;;;;5030652;28;20205;-86
2020/12/17 02:49:09;;;;;;;0.40;0.40;;;5.20;99.90;;;;;;5030670;28;20233;-87
2020/12/17 02:51:39;;;;;;;0.50;0.50;;;5.20;99.90;;;;;;5030536;28;20205;-87
2020/12/17 02:54:05;;;;;;;0.40;0.40;;;5.20;99.90;;;;;;5030598;28;20213;-87
2020/12/17 02:56:31;;;;;;;0.50;0.50;;;5.20;99.90;;;;;;5030740;28;20479;-87
2020/12/17 02:58:58;;;;;;;0.50;0.50;;;5.20;99.90;;;;;;5030505;28;20208;-87
2020/12/17 03:01:27;;;;;;;0.50;0.50;;;5.20;99.90;;;;;;5030482;28;20232;-86
2020/12/17 03:03:53;;;;;;;0.50;0.50;;;5.10;99.90;;;;;;5030814;28;20227;-86
2020/12/17 03:06:22;;;;;;;0.50;0.50;;;5.20;99.90;;;;;;5025585;28;20208;-86
2020/12/17 03:08:48;;;;;;;0.50;0.50;;;5.20;99.90;;;;;;5028980;28;20212;-86
2020/12/17 03:11:14;;;;;;;0.50;0.50;;;5.20;99.90;;;;;;5028115;28;20205;-86
2020/12/17 03:13:41;;;;;;;0.50;0.50;;;5.20;99.90;;;;;;5030367;28;20585;-86
2020/12/17 03:16:08;;;;;;;0.50;0.50;;;5.10;99.90;;;;;;5030256;28;20267;-86
2020/12/17 03:18:34;;;;;;;0.50;0.50;;;5.10;99.90;;;;;;5030417;28;20625;-87
2020/12/17 03:21:03;;;;;;;0.50;0.50;;;5.20;99.90;;;;;;5030438;28;20207;-86
2020/12/17 03:23:31;;;;;;;0.40;0.40;;;5.20;99.90;;;;;;5030498;28;20239;-88
2020/12/17 03:25:58;;;;;;;0.47;0.47;;;5.20;99.90;;;;;;5030551;28;20588;-86
2020/12/17 03:28:24;;;;;;;0.50;0.50;;;5.10;99.90;;;;;;5030623;28;20196;-87
2020/12/17 03:30:50;;;;;;;0.50;0.50;;;5.20;99.90;;;;;;5030626;28;20205;-87
2020/12/17 03:33:17;;;;;;;0.50;0.50;;;5.20;99.90;;;;;;5030685;28;20205;-88
2020/12/17 03:35:44;;;;;;;0.50;0.50;;;5.30;99.90;;;;;;5030441;28;20212;-87
2020/12/17 03:38:10;;;;;;;0.50;0.50;;;5.20;99.90;;;;;;5030335;28;20703;-87
2020/12/17 03:40:41;;;;;;;0.50;0.50;;;5.30;99.90;;;;;;5030299;28;20211;-87
2020/12/17 03:43:07;;;;;;;0.50;0.50;;;5.30;99.90;;;;;;5030164;28;20225;-87
2020/12/17 03:45:33;;;;;;;0.50;0.50;;;5.30;99.90;;;;;;5030568;28;20209;-87
2020/12/17 03:48:02;;;;;;;0.50;0.50;;;5.30;99.90;;;;;;5030415;28;20209;-87
2020/12/17 03:50:29;;;;;;;0.50;0.50;;;5.30;99.90;;;;;;5030714;28;20281;-87
2020/12/17 03:52:55;;;;;;;0.50;0.50;;;5.40;99.90;;;;;;5033914;28;20235;-87
2020/12/17 03:55:21;;;;;;;0.50;0.50;;;5.30;99.90;;;;;;5033988;28;20676;-88
2020/12/17 03:57:47;;;;;;;0.50;0.50;;;5.40;99.90;;;;;;5034004;28;20431;-86
2020/12/17 04:00:13;;;;;;;0.50;0.50;;;5.40;99.90;;;;;;5033552;28;20208;-86
2020/12/17 04:02:39;;;;;;;0.50;0.50;;;5.40;99.90;;;;;;5033849;28;20225;-88
2020/12/17 04:05:05;;;;;;;0.50;0.50;;;5.40;99.90;;;;;;5033950;28;20232;-87
2020/12/17 04:07:32;;;;;;;0.50;0.50;;;5.40;99.90;;;;;;5034191;28;20680;-87
2020/12/17 04:10:01;;;;;;;0.50;0.50;;;5.40;99.90;;;;;;5034682;28;20290;-87
2020/12/17 04:12:27;;;;;;;0.50;0.50;;;5.40;99.90;;;;;;5033998;28;20246;-87
2020/12/17 04:14:53;;;;;;;0.50;0.50;;;5.40;99.90;;;;;;5034078;28;20205;-86
2020/12/17 04:17:23;;;;;;;0.50;0.50;;;5.40;99.90;;;;;;5033548;28;20216;-86
2020/12/17 04:19:49;;;;;;;0.50;0.50;;;5.30;99.90;;;;;;5033656;28;20208;-87
2020/12/17 04:22:16;;;;;;;0.50;0.50;;;5.30;99.90;;;;;;5033533;28;20291;-87
2020/12/17 04:24:45;;;;;;;0.50;0.50;;;5.40;99.90;;;;;;5033618;28;20610;-87
2020/12/17 04:27:11;;;;;;;0.50;0.50;;;5.40;99.90;;;;;;5033480;28;20221;-88
2020/12/17 04:29:37;;;;;;;0.50;0.50;;;5.30;99.90;;;;;;5033630;28;20271;-87
2020/12/17 04:32:04;;;;;;;0.50;0.50;;;5.40;99.90;;;;;;5033703;28;20200;-87
2020/12/17 04:34:30;;;;;;;0.50;0.50;;;5.40;99.90;;;;;;5034300;28;20220;-87
2020/12/17 04:36:56;;;;;;;0.50;0.50;;;5.40;99.90;;;;;;5033770;28;20205;-87
2020/12/17 04:39:22;;;;;;;0.50;0.50;;;5.40;99.90;;;;;;5033739;28;20205;-87
2020/12/17 04:41:51;;;;;;;0.50;0.50;;;5.30;99.90;;;;;;5033305;28;20217;-87
2020/12/17 04:44:17;;;;;;;0.50;0.50;;;5.30;99.90;;;;;;5033505;28;20224;-88
2020/12/17 04:46:50;;;;;;;0.50;0.50;;;5.40;99.90;;;;;;5033758;28;20619;-87
2020/12/17 04:49:19;;;;;;;0.50;0.50;;;5.40;99.90;;;;;;5033050;28;20245;-87
2020/12/17 04:51:47;;;;;;;0.50;0.50;;;5.40;99.90;;;;;;5033190;28;20209;-88
2020/12/17 04:54:19;;;;;;;0.40;0.40;;;5.40;99.90;;;;;;5032823;28;20213;-88
2020/12/17 04:56:55;;;;;;;0.50;0.50;;;5.40;99.90;;;;;;5042513;28;20659;-88
2020/12/17 04:59:38;;;;;;;0.50;0.50;;;5.50;99.90;;;;;;5042254;28;20213;-88
2020/12/17 05:02:06;;;;;;;0.50;0.50;;;5.50;99.90;;;;;;5042489;28;20691;-88
2020/12/17 05:04:36;;;;;;;0.50;0.50;;;5.50;99.90;;;;;;5042439;28;20201;-87
2020/12/17 05:07:07;;;;;;;0.50;0.50;;;5.50;99.90;;;;;;5044746;28;20215;-87
2020/12/17 05:09:34;;;;;;;0.50;0.50;;;5.50;99.90;;;;;;5043939;28;20690;-87
2020/12/17 05:12:00;;;;;;;0.50;0.50;;;5.50;99.90;;;;;;5041188;28;20209;-88
2020/12/17 05:14:28;;;;;;;0.50;0.50;;;5.50;99.90;;;;;;5040823;28;20561;-87
2020/12/17 05:16:55;;;;;;;0.50;0.50;;;5.50;99.90;;;;;;5042187;28;20204;-86
2020/12/17 05:19:22;;;;;;;0.50;0.50;;;5.50;99.90;;;;;;5044837;28;20192;-87
2020/12/17 05:21:48;;;;;;;0.50;0.50;;;5.50;99.90;;;;;;5053859;28;20224;-88
2020/12/17 05:24:14;;;;;;;0.50;0.50;;;5.50;99.90;;;;;;5053826;28;20353;-88
2020/12/17 05:26:41;;;;;;;0.50;0.50;;;5.50;99.90;;;;;;5053977;28;20254;-87
2020/12/17 05:29:07;;;;;;;0.50;0.50;;;5.60;99.90;;;;;;5053784;28;20330;-88
2020/12/17 05:31:36;;;;;;;0.50;0.50;;;5.60;99.90;;;;;;5041142;28;20201;-87
2020/12/17 05:34:03;;;;;;;0.50;0.50;;;5.60;99.90;;;;;;5033892;28;20197;-87
2020/12/17 05:36:30;;;;;;;0.50;0.50;;;5.70;99.90;;;;;;5042533;28;20204;-87
2020/12/17 05:39:07;;;;;;;0.40;0.40;;;5.60;99.90;;;;;;5053688;28;20291;-88
2020/12/17 05:41:34;;;;;;;0.50;0.50;;;5.60;99.90;;;;;;5053268;28;20786;-86
2020/12/17 05:44:08;;;;;;;0.50;0.50;;;5.60;99.90;;;;;;5053381;28;20224;-87
2020/12/17 05:46:37;;;;;;;0.50;0.50;;;5.50;99.90;;;;;;5053449;28;20885;-88
2020/12/17 05:49:11;;;;;;;0.50;0.50;;;5.60;99.90;;;;;;5053241;28;20233;-87
2020/12/17 05:51:37;;;;;;;0.50;0.50;;;5.60;99.90;;;;;;5053302;28;20201;-88
2020/12/17 05:54:04;;;;;;;0.50;0.50;;;5.70;99.90;;;;;;5053192;28;20204;-88
2020/12/17 05:56:31;;;;;;;0.50;0.50;;;5.60;99.90;;;;;;5053060;28;20208;-88
2020/12/17 05:59:04;;;;;;;0.50;0.50;;;5.70;99.90;;;;;;5053207;28;20196;-87
2020/12/17 06:01:30;;;;;;;0.50;0.50;;;5.70;99.90;;;;;;5052885;28;20232;-88
2020/12/17 06:03:57;;;;;;;0.50;0.50;;;5.70;99.90;;;;;;5052817;28;20219;-88
2020/12/17 06:06:24;;;;;;;0.50;0.50;;;5.70;99.90;;;;;;5052937;28;20201;-88
2020/12/17 06:08:52;;;;;;;0.50;0.50;;;5.80;99.90;;;;;;5053036;28;20200;-88
2020/12/17 06:11:22;;;;;;;0.50;0.50;;;5.80;99.90;;;;;;5052972;28;20546;-87
2020/12/17 06:13:56;;;;;;;0.50;0.50;;;5.80;99.90;;;;;;5052135;28;20262;-88
2020/12/17 06:16:23;;;;;;;0.50;0.50;;;5.90;99.90;;;;;;5052920;28;20229;-88
2020/12/17 06:18:56;;;;;;;0.50;0.50;;;6.60;99.90;;;;;;5052938;28;20291;-89
2020/12/17 06:21:25;;;;;;;0.45;0.45;;;6.60;99.90;;;;;;5052759;28;20235;-89
2020/12/17 06:23:56;;;;;;;0.40;0.40;;;5.90;99.90;;;;;;5053041;28;20200;-88
2020/12/17 06:26:23;;;;;;;0.50;0.50;;;5.90;99.90;;;;;;5052613;28;20231;-88
2020/12/17 06:28:51;;;;;;;0.50;0.50;;;5.90;99.90;;;;;;5049717;28;20239;-89
2020/12/17 06:31:19;;;;;;;0.50;0.50;;;5.70;99.90;;;;;;5052441;28;20200;-87
2020/12/17 06:33:46;;;;;;;0.50;0.50;;;5.90;99.90;;;;;;5052641;28;20197;-88
2020/12/17 06:36:36;;;;;;;0.50;0.50;;;5.90;99.90;;;;;;5052715;28;20203;-89
2020/12/17 06:39:05;;;;;;;0.50;0.50;;;5.90;99.90;;;;;;5052748;28;20196;-87
2020/12/17 06:41:31;;;;;;;0.50;0.50;;;5.90;99.90;;;;;;5052505;28;20713;-88
2020/12/17 06:43:58;;;;;;;0.50;0.50;;;5.90;99.90;;;;;;5044093;28;20204;-88
2020/12/17 06:46:36;;;;;;;0.50;0.50;;;5.90;99.90;;;;;;5031412;28;20216;-87
2020/12/17 06:49:10;;;;;;;0.50;0.50;;;5.90;99.90;;;;;;5032390;28;20715;-87
2020/12/17 06:51:44;;;;;;;0.47;0.47;;;6.00;99.90;;;;;;5029944;28;20201;-88
2020/12/17 06:54:34;;;;;;;0.50;0.50;;;6.00;99.90;;;;;;5022484;28;20295;-88
2020/12/17 06:57:04;;;;;;;0.50;0.50;;;6.00;99.90;;;;;;5020376;28;20255;-88
2020/12/17 06:59:31;;;;;;;0.50;0.50;;;6.00;99.90;;;;;;5035172;28;20300;-87
2020/12/17 07:01:59;;;;;;;0.50;0.50;;;6.10;99.90;;;;;;5037427;28;20221;-88
2020/12/17 07:04:41;;;;;;;0.50;0.50;;;6.00;99.90;;;;;;5039994;28;20200;-88
2020/12/17 07:07:19;;;;;;;0.50;0.50;;;6.00;99.90;;;;;;5039708;28;20215;-87
2020/12/17 07:09:50;;;;;;;0.50;0.50;;;6.00;99.90;;;;;;5040194;28;20216;-88
2020/12/17 07:12:41;;;;;;;0.50;0.50;;;6.10;99.90;;;;;;5031011;28;20256;-88
2020/12/17 07:15:30;;;;;;;0.50;0.50;;;6.10;99.90;;;;;;5031232;28;20209;-88
2020/12/17 07:18:19;;;;;;;0.50;0.50;;;6.10;99.90;;;;;;5038552;28;20215;-87
2020/12/17 07:20:47;;;;;;;0.50;0.50;;;6.10;99.90;;;;;;5036547;28;20440;-88
2020/12/17 07:23:17;;;;;;;0.50;0.50;;;6.10;99.90;;;;;;5035660;28;20224;-88
2020/12/17 07:25:43;;;;;;;0.50;0.50;;;6.10;99.90;;;;;;5041732;28;20202;-88
2020/12/17 07:28:13;;;;;;;0.50;0.50;;;6.10;99.90;;;;;;5046900;28;20211;-87
2020/12/17 07:30:40;;;;;;;0.50;0.50;;;6.20;99.90;;;;;;5042895;28;20354;-87
2020/12/17 07:33:08;;;;;;;0.50;0.50;;;6.20;99.90;;;;;;5044465;28;20200;-87
2020/12/17 07:35:43;;;;;;;0.50;0.50;;;6.20;99.90;;;;;;5044887;28;20208;-87
2020/12/17 07:38:18;;;;;;;0.50;0.50;;;6.20;99.90;;;;;;5039743;28;20201;-87
2020/12/17 07:40:46;;;;;;;0.50;0.50;;;6.30;99.90;;;;;;5034257;28;20238;-88
2020/12/17 07:43:14;;;;;;;0.50;0.50;;;6.30;99.90;;;;;;5030754;28;20228;-88
2020/12/17 07:45:48;;;;;;;0.50;0.50;;;6.30;99.90;;;;;;5034093;28;20259;-87
2020/12/17 07:48:33;;;;;;;0.43;0.43;;;6.30;99.90;;;;;;5040196;28;21065;-87
2020/12/17 07:51:04;;;;;;;0.50;0.50;;;6.30;99.90;;;;;;5034473;28;20288;-89
2020/12/17 07:53:33;;;;;;;0.50;0.50;;;6.30;99.90;;;;;;5034478;28;20205;-89
2020/12/17 07:56:02;;;;;;;0.50;0.50;;;6.30;99.90;;;;;;5041949;28;20215;-87
2020/12/17 07:58:28;;;;;;;0.50;0.50;;;6.40;99.90;;;;;;5046433;28;20216;-88
2020/12/17 08:00:56;;;;;;;0.50;0.50;;;6.40;99.90;;;;;;5035127;28;20209;-89
2020/12/17 08:03:25;;;;;;;0.50;0.50;;;6.40;99.90;;;;;;5033975;28;20256;-88
2020/12/17 08:05:53;;;;;;;0.50;0.50;;;6.40;99.90;;;;;;5034762;28;20216;-88
2020/12/17 08:08:20;;;;;;;0.50;0.50;;;6.20;99.90;;;;;;5044941;28;20748;-89
2020/12/17 08:10:48;;;;;;;0.50;0.50;;;6.40;99.90;;;;;;5040560;28;20205;-88
2020/12/17 08:13:16;;;;;;;0.50;0.50;;;6.40;99.90;;;;;;5031355;28;20205;-89
2020/12/17 08:15:43;;;;;;;0.50;0.50;;;6.40;99.90;;;;;;5030701;28;20209;-88
2020/12/17 08:18:12;;;;;;;0.50;0.50;;;6.40;99.90;;;;;;5033360;28;20727;-88
2020/12/17 08:20:39;;;;;;;0.50;0.50;;;6.40;99.90;;;;;;5033574;28;20213;-88
2020/12/17 08:23:05;;;;;;;0.50;0.50;;;6.40;99.90;;;;;;5033870;28;20232;-87
2020/12/17 08:25:32;;;;;;;0.50;0.50;;;6.40;99.90;;;;;;5033841;28;20244;-88
2020/12/17 08:27:58;;;;;;;0.50;0.50;;;6.40;99.90;;;;;;5034462;28;20205;-89
2020/12/17 08:30:25;;;;;;;0.50;0.50;;;6.40;99.90;;;;;;5047825;28;20212;-88
2020/12/17 08:32:53;;;;;;;0.50;0.50;;;6.40;99.90;;;;;;5036520;28;20213;-88
2020/12/17 08:35:22;;;;;;;0.50;0.50;;;6.50;99.90;;;;;;5037044;28;20201;-89
2020/12/17 08:37:50;;;;;;;0.50;0.50;;;6.50;99.90;;;;;;5039624;28;20295;-87
2020/12/17 08:40:28;;;;;;;0.50;0.50;;;6.60;99.90;;;;;;5034008;28;20201;-88
2020/12/17 08:43:02;;;;;;;0.50;0.50;;;6.60;99.90;;;;;;5034011;28;20232;-88
2020/12/17 08:45:29;;;;;;;0.50;0.50;;;6.60;99.90;;;;;;5031903;28;20209;-87
2020/12/17 08:47:58;;;;;;;0.50;0.50;;;6.60;99.90;;;;;;5033708;28;20213;-88
2020/12/17 08:50:26;;;;;;;0.50;0.50;;;6.60;99.90;;;;;;5033073;28;20859;-87
2020/12/17 08:52:53;;;;;;;0.50;0.50;;;6.60;99.90;;;;;;5033643;28;20284;-87
2020/12/17 08:55:19;;;;;;;0.50;0.50;;;6.60;99.90;;;;;;5033406;28;20209;-88
2020/12/17 08:57:47;;;;;;;0.50;0.50;;;6.70;99.90;;;;;;5033940;28;20204;-88
2020/12/17 09:00:19;;;;;;;0.50;0.50;;;6.70;99.90;;;;;;5037498;28;20227;-87
2020/12/17 09:02:46;;;;;;;0.50;0.50;;;6.70;99.90;;;;;;5033096;28;20275;-88
2020/12/17 09:05:14;;;;;;;0.50;0.50;;;7.10;99.90;;;;;;5033386;28;20219;-88
2020/12/17 09:07:53;;;;;;;0.50;0.50;;;6.70;99.90;;;;;;5033963;28;20212;-88
2020/12/17 09:10:20;;;;;;;0.45;0.45;;;6.70;99.90;;;;;;5043943;28;20236;-88
2020/12/17 09:12:55;;;;;;;0.50;0.50;;;6.80;99.90;;;;;;5033856;28;20232;-89
2020/12/17 09:15:24;;;;;;;0.50;0.50;;;6.80;99.90;;;;;;5035957;28;20200;-89
2020/12/17 09:17:53;;;;;;;0.50;0.50;;;6.80;99.90;;;;;;5050953;28;20633;-89
2020/12/17 09:20:21;;;;;;;0.50;0.50;;;6.80;99.90;;;;;;5032735;28;20205;-89
2020/12/17 09:22:50;;;;;;;0.50;0.50;;;6.90;99.90;;;;;;5039947;28;20220;-89
2020/12/17 09:25:27;;;;;;;0.50;0.50;;;6.90;99.90;;;;;;5041429;28;20204;-89
2020/12/17 09:27:54;;;;;;;0.45;0.45;;;7.30;99.90;;;;;;5033205;28;20228;-89
2020/12/17 09:30:31;;;;;;;0.50;0.50;;;6.90;99.90;;;;;;5033662;28;20251;-89
2020/12/17 09:33:01;;;;;;;0.50;0.50;;;7.40;99.90;;;;;;5033783;28;20201;-89
2020/12/17 09:35:32;;;;;;;0.50;0.50;;;7.00;99.90;;;;;;5032133;28;20567;-88
2020/12/17 09:38:01;;;;;;;0.50;0.50;;;7.00;99.90;;;;;;5033129;28;20201;-90
2020/12/17 09:40:28;;;;;;;0.50;0.50;;;7.00;99.90;;;;;;5032397;28;20296;-90
2020/12/17 09:43:05;;;;;;;0.40;0.40;;;7.10;99.90;;;;;;5028097;28;20302;-90
2020/12/17 09:45:34;;;;;;;0.50;0.50;;;7.10;99.90;;;;;;5031701;28;20205;-89
2020/12/17 09:48:16;;;;;;;0.50;0.50;;;7.80;99.90;;;;;;5031269;28;20225;-89
2020/12/17 09:50:53;;;;;;;0.50;0.50;;;7.20;99.90;;;;;;5032168;28;20986;-88
2020/12/17 09:53:21;;;;;;;0.50;0.50;;;7.20;99.90;;;;;;5032417;28;20656;-88
2020/12/17 09:55:48;;;;;;;0.50;0.50;;;7.20;99.90;;;;;;5030309;28;20820;-89
2020/12/17 09:58:14;;;;;;;0.50;0.50;;;7.30;99.90;;;;;;5032369;28;20205;-88
2020/12/17 10:00:50;;;;;;;0.50;0.50;;;7.40;99.90;;;;;;5032505;28;20213;-90
2020/12/17 10:03:17;;;;;;;0.50;0.50;;;7.40;99.90;;;;;;5032327;28;20224;-89
2020/12/17 10:05:43;;;;;;;0.50;0.50;;;7.50;99.90;;;;;;5032566;28;20216;-89
2020/12/17 10:08:10;;;;;;;0.50;0.50;;;7.60;99.90;;;;;;5031056;28;20209;-88
2020/12/17 10:10:37;;;;;;;0.50;0.50;;;7.60;99.90;;;;;;5032106;28;20204;-88
2020/12/17 10:13:06;;;;;;;0.50;0.50;;;7.70;99.90;;;;;;5041597;28;20193;-89
2020/12/17 10:15:36;;;;;;;0.50;0.50;;;7.80;99.90;;;;;;5031774;28;20216;-88
2020/12/17 10:18:02;;;;;;;0.50;0.50;;;7.90;99.90;;;;;;5031926;28;20209;-88
2020/12/17 10:20:30;;;;;;;0.50;0.50;;;8.60;99.90;;;;;;5031147;28;20617;-88
2020/12/17 10:22:56;;;;;;;0.50;0.50;;;8.10;99.90;;;;;;5031574;28;20595;-88
2020/12/17 10:25:23;;;;;;;0.50;0.50;;;8.20;99.90;;;;;;5038727;28;20239;-88
2020/12/17 10:27:50;;;;;;;0.50;0.50;;;8.20;99.90;;;;;;5041510;28;20678;-88
2020/12/17 10:30:17;;;;;;;0.50;0.50;;;8.20;99.90;;;;;;5041101;28;20212;-87
2020/12/17 10:32:46;;;;;;;0.50;0.50;;;8.40;99.90;;;;;;5039468;28;20212;-88
2020/12/17 10:35:17;;;;;;;0.50;0.50;;;8.40;99.90;;;;;;5044582;28;20200;-89
2020/12/17 10:37:44;;;;;;;0.50;0.50;;;8.40;99.90;;;;;;5039183;28;20374;-88
2020/12/17 10:40:15;;;;;;;0.50;0.50;;;8.50;99.90;;;;;;5044465;28;20209;-88
2020/12/17 10:42:42;;;;;;;0.50;0.50;;;8.50;99.90;;;;;;5043797;28;20233;-87
2020/12/17 10:45:10;;;;;;;0.50;0.50;;;8.50;99.90;;;;;;5034376;28;20228;-88
2020/12/17 10:47:39;;;;;;;0.50;0.50;;;8.60;99.90;;;;;;5037405;28;20670;-88
2020/12/17 10:50:07;;;;;;;0.50;0.50;;;8.60;99.90;;;;;;5033367;28;20721;-88
2020/12/17 10:52:33;;;;;;;0.50;0.50;;;8.60;99.90;;;;;;5044538;28;20204;-87
2020/12/17 10:55:03;;;;;;;0.50;0.50;;;8.60;99.90;;;;;;5039054;28;20258;-87
2020/12/17 10:57:29;;;;;;;0.50;0.50;;;8.60;99.90;;;;;;5042302;28;20215;-88
2020/12/17 11:00:01;;;;;;;0.50;0.50;;;8.70;99.90;;;;;;5038449;28;20201;-88
2020/12/17 11:02:27;;;;;;;0.50;0.50;;;8.70;99.90;;;;;;5033571;28;20233;-88
2020/12/17 11:04:53;;;;;;;0.50;0.50;;;8.80;99.90;;;;;;5044414;28;20201;-88
2020/12/17 11:07:20;;;;;;;0.50;0.50;;;8.70;99.90;;;;;;5041256;28;20655;-88
2020/12/17 11:09:46;;;;;;;0.50;0.50;;;8.70;99.90;;;;;;5041735;28;20209;-88
2020/12/17 11:12:15;;;;;;;0.50;0.50;;;8.80;99.90;;;;;;5040063;28;20616;-87
2020/12/17 11:14:41;;;;;;;0.50;0.50;;;8.80;99.90;;;;;;5040633;28;20204;-87
2020/12/17 11:17:07;;;;;;;0.50;0.50;;;8.70;99.90;;;;;;5040629;28;20702;-88
2020/12/17 11:19:33;;;;;;;0.50;0.50;;;8.70;99.90;;;;;;5037242;28;20201;-89
2020/12/17 11:22:03;;;;;;;0.50;0.50;;;8.60;99.90;;;;;;5041507;28;20223;-88
2020/12/17 11:24:29;;;;;;;0.50;0.50;;;8.70;99.90;;;;;;5041883;28;20238;-88
2020/12/17 11:26:56;;;;;;;0.50;0.50;;;8.60;99.90;;;;;;5040339;28;20209;-88
2020/12/17 11:29:23;;;;;;;0.47;0.47;;;8.60;99.90;;;;;;5040680;28;20200;-88
2020/12/17 11:31:50;;;;;;;0.50;0.50;;;8.50;99.90;;;;;;5041891;28;20219;-88
2020/12/17 11:34:16;;;;;;;0.50;0.50;;;8.50;99.90;;;;;;5039938;28;20201;-88
2020/12/17 11:36:43;;;;;;;0.50;0.50;;;8.40;99.90;;;;;;5040559;28;20354;-89
2020/12/17 11:39:13;;;;;;;0.50;0.50;;;8.50;99.90;;;;;;5041744;28;20212;-88
2020/12/17 11:41:41;;;;;;;0.45;0.45;;;8.40;99.90;;;;;;5040261;28;20292;-88
2020/12/17 11:44:08;;;;;;;0.50;0.50;;;8.40;99.90;;;;;;5040342;28;20208;-88
2020/12/17 11:46:35;;;;;;;0.50;0.50;;;8.40;99.90;;;;;;5028698;28;20209;-88
2020/12/17 11:49:01;;;;;;;0.50;0.50;;;8.40;99.90;;;;;;5040044;28;20244;-86
2020/12/17 11:51:29;;;;;;;0.50;0.50;;;8.40;99.90;;;;;;5035136;28;20212;-87
2020/12/17 11:53:55;;;;;;;0.50;0.50;;;8.40;99.90;;;;;;5036054;28;20208;-87
2020/12/17 11:56:22;;;;;;;0.50;0.50;;;8.40;99.90;;;;;;5032248;28;20217;-88
2020/12/17 11:58:48;;;;;;;0.50;0.50;;;8.30;99.90;;;;;;5029961;28;20201;-88
2020/12/17 12:01:14;;;;;;;0.50;0.50;;;8.30;99.90;;;;;;5029189;28;20235;-88
2020/12/17 12:03:41;;;;;;;0.50;0.50;;;8.40;99.90;;;;;;5029667;28;20258;-88
2020/12/17 12:06:08;;;;;;;0.50;0.50;;;8.40;99.90;;;;;;5025728;28;20213;-88
2020/12/17 12:08:34;;;;;;;0.50;0.50;;;8.60;99.90;;;;;;5028621;28;20212;-89
2020/12/17 12:11:00;;;;;;;0.50;0.50;;;8.40;99.90;;;;;;5030827;28;20202;-90
2020/12/17 12:13:26;;;;;;;0.50;0.50;;;8.40;99.90;;;;;;5034264;28;20201;-88
2020/12/17 12:15:53;;;;;;;0.50;0.50;;;8.40;99.90;;;;;;5040450;28;20299;-88
2020/12/17 12:18:19;;;;;;;0.50;0.50;;;8.40;99.90;;;;;;5039363;28;20205;-88
2020/12/17 12:20:46;;;;;;;0.50;0.50;;;8.50;99.90;;;;;;5042753;28;20232;-89
2020/12/17 12:23:15;;;;;;;0.47;0.47;;;8.50;99.90;;;;;;5044442;28;20220;-89
2020/12/17 12:25:42;;;;;;;0.50;0.50;;;8.50;99.90;;;;;;5044761;28;20295;-89
2020/12/17 12:28:08;;;;;;;0.50;0.50;;;8.50;99.90;;;;;;5043276;28;20197;-88
2020/12/17 12:30:34;;;;;;;0.50;0.50;;;8.50;99.90;;;;;;5044157;28;20216;-89
2020/12/17 12:33:01;;;;;;;0.50;0.50;;;8.50;99.90;;;;;;5045050;28;20200;-89
2020/12/17 12:35:27;;;;;;;0.50;0.50;;;8.50;99.90;;;;;;5042990;28;20208;-88
2020/12/17 12:37:55;;;;;;;0.50;0.50;;;8.50;99.90;;;;;;5042085;28;20204;-88
2020/12/17 12:40:21;;;;;;;0.50;0.50;;;8.60;99.90;;;;;;5036988;28;20205;-88
2020/12/17 12:42:48;;;;;;;0.50;0.50;;;9.20;99.90;;;;;;5042665;28;21118;-89
2020/12/17 12:45:14;;;;;;;0.50;0.50;;;8.70;99.90;;;;;;5042048;28;20224;-88
2020/12/17 12:47:43;;;;;;;0.50;0.50;;;8.70;99.90;;;;;;5043547;28;20201;-88
2020/12/17 12:50:09;;;;;;;0.50;0.50;;;8.70;99.90;;;;;;5042266;28;20810;-88
2020/12/17 12:52:38;;;;;;;0.50;0.50;;;8.70;99.90;;;;;;5044057;28;20196;-88
2020/12/17 12:55:07;;;;;;;0.50;0.50;;;8.70;99.90;;;;;;5041429;28;20404;-89
2020/12/17 12:57:35;;;;;;;0.50;0.50;;;8.70;99.90;;;;;;5041443;28;20279;-89
2020/12/17 13:00:01;;;;;;;0.50;0.50;;;8.70;99.90;;;;;;5041881;28;20213;-90
2020/12/17 13:02:27;;;;;;;0.50;0.50;;;8.70;99.90;;;;;;5042253;28;20294;-88